This is the latest recevied weather packets stored in our database for station/object K2ATL. If no packets are shown the sender has not sent any weather packets the latest 10 day(s).
| Time | Temp. | Humidity | Pressure | Rain* | Wind** | Luminosity | Snow |
|---|---|---|---|---|---|---|---|
| 1787375150 | 21.67° C | 85% | 1102.3 hPa | 0 mm | - | 0 W/m² | - |
| 1787374847 | 21.67° C | 87% | 1102.5 hPa | 0 mm | - | 0 W/m² | - |
| 1787374543 | 21.67° C | 87% | 1102.4 hPa | 0 mm | - | 0 W/m² | - |
| 1787374238 | 21.67° C | 88% | 1102.5 hPa | 0 mm | - | 0 W/m² | - |
| 1787373934 | 22.22° C | 88% | 1102.4 hPa | 0 mm | - | 0 W/m² | - |
| 1787373633 | 22.22° C | 87% | 1102.5 hPa | 0 mm | - | 0 W/m² | - |
| 1787373328 | 22.22° C | 87% | 1102.6 hPa | 0 mm | - | 0 W/m² | - |
| 1787373025 | 21.67° C | 88% | 1102.6 hPa | 0 mm | - | 0 W/m² | - |
| 1787372724 | 21.67° C | 89% | 1102.5 hPa | 0 mm | - | 0 W/m² | - |
| 1787372421 | 21.67° C | 90% | 1102.7 hPa | 0 mm | - | 0 W/m² | - |
| 1787372117 | 21.67° C | 90% | 1102.8 hPa | 0 mm | - | 0 W/m² | - |
| 1787371813 | 22.22° C | 88% | 1102.6 hPa | 0 mm | - | 0 W/m² | - |
| 1787371508 | 22.22° C | 87% | 1102.8 hPa | 0 mm | - | 0 W/m² | - |
| 1787371203 | 22.78° C | 87% | 1102.7 hPa | 0 mm | - | 0 W/m² | - |
| 1787370898 | 23.89° C | 83% | 1102.7 hPa | 0 mm | - | 0 W/m² | - |
| 1787370594 | 23.33° C | 83% | 1102.8 hPa | 0 mm | - | 0 W/m² | - |
| 1787370288 | 23.33° C | 83% | 1103.1 hPa | 0 mm | - | 0 W/m² | - |
| 1787369983 | 23.33° C | 83% | 1103.2 hPa | 0 mm | - | 0 W/m² | - |
| 1787369679 | 22.78° C | 85% | 1103.2 hPa | 0 mm | - | 0 W/m² | - |
| 1787369377 | 22.78° C | 86% | 1103.2 hPa | 0 mm | - | 0 W/m² | - |
| 1787369072 | 22.78° C | 86% | 1103.3 hPa | 0 mm | - | 0 W/m² | - |
| 1787368772 | 23.33° C | 84% | 1103.1 hPa | 0 mm | - | 0 W/m² | - |
| 1787368466 | 23.89° C | 82% | 1103.2 hPa | 0 mm | - | 0 W/m² | - |
| 1787368162 | 23.89° C | 82% | 1103 hPa | 0 mm | - | 0 W/m² | - |
| 1787367859 | 23.33° C | 83% | 1103 hPa | 0 mm | - | 0 W/m² | - |
* Rain latest hour (hover to see other rain measurements)
** Current wind speed in m/s (hover to see current wind gust speed)